createdAt,value
2022-12-26T00:01:45.627Z,9.93
2022-12-26T00:04:52.495Z,9.87
2022-12-26T00:06:58.937Z,9.71
2022-12-26T00:09:25.636Z,10.36
2022-12-26T00:11:52.303Z,10.77
2022-12-26T00:14:19.146Z,11.04
2022-12-26T00:16:46.180Z,10.86
2022-12-26T00:19:13.717Z,10.93
2022-12-26T00:21:40.613Z,10.79
2022-12-26T00:24:09.456Z,11.10
2022-12-26T00:26:36.100Z,11.04
2022-12-26T00:29:03.426Z,10.78
2022-12-26T00:31:32.804Z,11.12
2022-12-26T00:34:00.689Z,11.03
2022-12-26T00:36:32.458Z,11.07
2022-12-26T00:39:01.920Z,10.93
2022-12-26T00:41:29.819Z,11.03
2022-12-26T00:43:57.149Z,11.15
2022-12-26T00:46:24.404Z,10.77
2022-12-26T00:50:14.212Z,11.04
2022-12-26T00:52:03.611Z,11.01
2022-12-26T00:54:30.291Z,11.30
2022-12-26T00:56:56.966Z,11.23
2022-12-26T00:59:23.702Z,11.11
2022-12-26T01:01:50.905Z,11.18
2022-12-26T01:04:17.854Z,11.44
2022-12-26T01:06:44.585Z,11.29
2022-12-26T01:09:11.258Z,11.24
2022-12-26T01:11:38.201Z,11.17
2022-12-26T01:14:07.224Z,10.63
2022-12-26T01:16:34.009Z,10.96
2022-12-26T01:19:00.820Z,11.03
2022-12-26T01:21:27.419Z,11.30
2022-12-26T01:23:55.191Z,11.35
2022-12-26T01:26:21.810Z,11.22
2022-12-26T01:28:49.405Z,11.35
2022-12-26T01:31:16.477Z,10.75
2022-12-26T01:33:43.159Z,11.02
2022-12-26T01:36:09.838Z,11.19
2022-12-26T01:38:37.383Z,11.09
2022-12-26T01:41:04.052Z,11.23
2022-12-26T01:43:53.195Z,11.24
2022-12-26T01:46:25.994Z,11.25
2022-12-26T01:48:55.731Z,10.81
2022-12-26T01:51:29.841Z,10.77
2022-12-26T01:54:41.081Z,10.53
2022-12-26T01:56:48.634Z,10.77
2022-12-26T01:59:25.212Z,11.08
2022-12-26T02:01:54.828Z,10.87
2022-12-26T02:04:29.309Z,10.73
2022-12-26T02:06:56.318Z,10.85
2022-12-26T02:09:23.979Z,11.29
2022-12-26T02:12:34.720Z,11.41
2022-12-26T02:14:49.017Z,11.28
2022-12-26T02:17:16.323Z,11.41
2022-12-26T02:20:20.883Z,11.31
2022-12-26T02:22:59.445Z,11.41
2022-12-26T02:25:34.981Z,11.34
2022-12-26T02:28:35.114Z,11.18
2022-12-26T02:31:46.859Z,11.38
2022-12-26T02:34:39.228Z,11.28
2022-12-26T02:37:27.532Z,11.15
2022-12-26T02:40:02.701Z,11.40
2022-12-26T02:43:00.831Z,11.21
2022-12-26T02:46:26.221Z,10.84
2022-12-26T02:49:25.605Z,10.79
2022-12-26T02:52:20.556Z,10.74
2022-12-26T02:55:00.298Z,11.16
2022-12-26T02:57:52.560Z,11.06
2022-12-26T03:00:21.790Z,10.91
2022-12-26T03:03:23.410Z,10.94
2022-12-26T03:06:00.470Z,10.82
2022-12-26T03:08:47.350Z,10.96
2022-12-26T03:11:14.185Z,11.22
2022-12-26T03:13:44.951Z,10.65
2022-12-26T03:16:14.639Z,10.71
2022-12-26T03:18:57.705Z,10.38
2022-12-26T03:21:33.845Z,10.45
2022-12-26T03:24:00.514Z,10.38
2022-12-26T03:26:35.413Z,10.40
2022-12-26T03:29:02.878Z,10.12
2022-12-26T03:31:29.653Z,10.41
2022-12-26T03:34:06.012Z,9.95
2022-12-26T03:36:43.272Z,9.81
2022-12-26T03:39:37.852Z,9.88
2022-12-26T03:42:21.776Z,9.86
2022-12-26T03:45:02.664Z,9.90
2022-12-26T03:47:39.831Z,10.26
2022-12-26T03:50:42.525Z,10.54
2022-12-26T03:53:25.610Z,10.16
2022-12-26T03:56:15.371Z,10.15
2022-12-26T03:58:56.599Z,10.10
2022-12-26T04:01:29.711Z,10.40
2022-12-26T04:04:01.415Z,10.28
2022-12-26T04:06:41.770Z,10.06
2022-12-26T04:09:19.831Z,10.14
2022-12-26T04:11:46.549Z,10.08
2022-12-26T04:14:48.081Z,10.18
2022-12-26T04:17:31.599Z,10.23
2022-12-26T04:20:31.852Z,10.29
2022-12-26T04:23:12.292Z,10.20
2022-12-26T04:26:10.950Z,10.63
2022-12-26T04:28:37.973Z,10.64
2022-12-26T04:31:37.156Z,10.99
2022-12-26T04:34:13.023Z,10.38
2022-12-26T04:37:00.202Z,11.02
2022-12-26T04:39:34.017Z,11.01
2022-12-26T04:42:01.774Z,11.07
2022-12-26T04:44:30.729Z,11.31
2022-12-26T04:46:57.526Z,11.32
2022-12-26T04:49:24.233Z,11.28
2022-12-26T04:51:51.810Z,11.24
2022-12-26T04:54:18.976Z,11.49
2022-12-26T04:56:46.026Z,11.42
2022-12-26T04:59:13.070Z,11.46
2022-12-26T05:01:39.817Z,11.29
2022-12-26T05:04:06.508Z,11.54
2022-12-26T05:06:33.125Z,10.64
2022-12-26T05:08:59.740Z,11.26
2022-12-26T05:11:27.637Z,10.95
2022-12-26T05:13:56.872Z,11.18
2022-12-26T05:16:25.102Z,11.23
2022-12-26T05:18:51.789Z,11.33
2022-12-26T05:21:19.210Z,11.63
2022-12-26T05:23:46.111Z,11.49
2022-12-26T05:26:21.801Z,11.45
2022-12-26T05:28:58.454Z,11.53
2022-12-26T05:31:31.165Z,11.00
2022-12-26T05:34:01.524Z,11.05
2022-12-26T05:36:37.352Z,11.13
2022-12-26T05:39:04.674Z,11.06
2022-12-26T05:41:31.611Z,10.74
2022-12-26T05:43:58.244Z,11.09
2022-12-26T05:46:24.964Z,11.18
2022-12-26T05:48:51.585Z,9.75
2022-12-26T05:51:18.225Z,10.04
2022-12-26T05:53:45.170Z,10.40
2022-12-26T05:56:14.539Z,10.70
2022-12-26T05:58:42.075Z,10.92
2022-12-26T06:01:15.749Z,10.76
2022-12-26T06:03:47.665Z,10.74
2022-12-26T06:06:15.325Z,10.63
2022-12-26T06:08:42.628Z,10.55
2022-12-26T06:11:13.313Z,10.51
2022-12-26T06:13:41.143Z,10.23
2022-12-26T06:16:11.238Z,11.03
2022-12-26T06:18:38.121Z,11.34
2022-12-26T06:21:17.938Z,11.39
2022-12-26T06:23:44.614Z,11.80
2022-12-26T06:26:11.872Z,11.74
2022-12-26T06:28:40.558Z,12.00
2022-12-26T06:31:14.671Z,11.78
2022-12-26T06:33:42.451Z,11.68
2022-12-26T06:36:14.988Z,11.89
2022-12-26T06:38:42.508Z,12.20
2022-12-26T06:41:11.666Z,12.02
2022-12-26T06:43:38.528Z,11.97
2022-12-26T06:46:06.665Z,12.25
2022-12-26T06:48:34.846Z,11.81
2022-12-26T06:51:06.058Z,11.50
2022-12-26T06:53:34.506Z,12.09
2022-12-26T06:56:08.122Z,12.32
2022-12-26T06:58:35.028Z,12.30
2022-12-26T07:01:13.225Z,12.20
2022-12-26T07:03:50.454Z,12.38
2022-12-26T07:06:23.792Z,11.87
2022-12-26T07:08:51.893Z,12.03
2022-12-26T07:11:23.436Z,11.36
2022-12-26T07:13:50.151Z,11.62
2022-12-26T07:16:17.281Z,11.54
2022-12-26T07:18:44.015Z,11.74
2022-12-26T07:21:14.043Z,11.82
2022-12-26T07:23:41.152Z,12.00
2022-12-26T07:26:08.907Z,12.08
2022-12-26T07:28:35.553Z,12.18
2022-12-26T07:31:03.111Z,11.98
2022-12-26T07:33:30.437Z,11.55
2022-12-26T07:36:05.570Z,11.44
2022-12-26T07:38:36.029Z,11.75
2022-12-26T07:41:02.702Z,12.25
2022-12-26T07:43:29.384Z,12.63
2022-12-26T07:45:58.095Z,12.72
2022-12-26T07:48:24.738Z,12.52
2022-12-26T07:50:51.408Z,12.73
2022-12-26T07:53:18.069Z,12.63
2022-12-26T07:55:44.688Z,12.70
2022-12-26T07:58:11.312Z,12.52
2022-12-26T08:00:37.984Z,12.46
2022-12-26T08:03:07.791Z,11.92
2022-12-26T08:05:34.656Z,12.24
2022-12-26T08:08:01.288Z,12.17
2022-12-26T08:10:28.029Z,12.46
2022-12-26T08:12:54.789Z,12.49
2022-12-26T08:15:21.411Z,12.61
2022-12-26T08:17:48.003Z,12.78
2022-12-26T08:20:14.749Z,12.48
2022-12-26T08:22:41.440Z,12.67
2022-12-26T08:25:08.807Z,12.86
2022-12-26T08:27:35.494Z,13.20
2022-12-26T08:30:02.322Z,13.26
2022-12-26T08:32:29.001Z,13.14
2022-12-26T08:34:55.647Z,13.25
2022-12-26T08:37:22.696Z,12.92
2022-12-26T08:39:49.957Z,13.00
2022-12-26T08:42:16.592Z,12.66
2022-12-26T08:44:43.418Z,12.78
2022-12-26T08:47:10.096Z,12.66
2022-12-26T08:49:36.700Z,12.07
2022-12-26T08:52:03.429Z,11.86
2022-12-26T08:54:30.684Z,11.59
2022-12-26T08:56:57.353Z,11.47
2022-12-26T08:59:23.962Z,11.24
2022-12-26T09:01:50.715Z,11.53
2022-12-26T09:04:17.790Z,11.37
2022-12-26T09:06:44.403Z,11.17
2022-12-26T09:09:13.127Z,11.43
2022-12-26T09:11:41.471Z,11.13
2022-12-26T09:14:09.316Z,11.11
2022-12-26T09:16:45.709Z,10.73
2022-12-26T09:19:17.105Z,10.72
2022-12-26T09:21:44.970Z,11.10
2022-12-26T09:24:14.768Z,11.10
2022-12-26T09:26:42.434Z,11.19
2022-12-26T09:29:14.168Z,11.24
2022-12-26T09:31:40.815Z,11.50
2022-12-26T09:34:08.120Z,11.65
2022-12-26T09:36:37.507Z,11.12
2022-12-26T09:39:05.774Z,11.00
2022-12-26T09:42:19.804Z,11.35
2022-12-26T09:45:12.012Z,11.42
2022-12-26T09:47:53.481Z,11.42
2022-12-26T09:50:39.591Z,11.40
2022-12-26T09:53:17.936Z,11.21
2022-12-26T09:55:44.859Z,11.19
2022-12-26T09:58:29.695Z,11.36
2022-12-26T10:01:10.212Z,11.34
2022-12-26T10:03:43.787Z,11.83
2022-12-26T10:06:14.111Z,11.50
2022-12-26T10:08:53.479Z,11.32
2022-12-26T10:11:41.004Z,11.29
2022-12-26T10:14:38.279Z,11.66
2022-12-26T10:17:25.090Z,11.58
2022-12-26T10:20:10.230Z,11.35
2022-12-26T10:22:39.811Z,10.95
2022-12-26T10:25:20.111Z,10.84
2022-12-26T10:27:50.316Z,11.06
2022-12-26T10:30:40.018Z,11.34
2022-12-26T10:33:24.838Z,11.06
2022-12-26T10:35:55.361Z,10.96
2022-12-26T10:38:34.257Z,11.27
2022-12-26T10:41:11.320Z,11.57
2022-12-26T10:43:39.958Z,11.27
2022-12-26T10:46:36.249Z,11.15
2022-12-26T10:49:03.676Z,11.10
2022-12-26T10:51:30.552Z,11.31
2022-12-26T10:53:57.153Z,11.00
2022-12-26T10:56:26.285Z,10.94
2022-12-26T10:59:04.582Z,10.85
2022-12-26T11:01:35.993Z,10.78
2022-12-26T11:04:31.134Z,11.17
2022-12-26T11:07:11.498Z,11.39
2022-12-26T11:09:45.994Z,11.32
2022-12-26T11:12:30.121Z,11.18
2022-12-26T11:15:00.575Z,11.50
2022-12-26T11:17:43.551Z,11.73
2022-12-26T11:20:16.319Z,11.57
2022-12-26T11:22:46.689Z,11.67
2022-12-26T11:25:20.212Z,11.45
2022-12-26T11:27:54.735Z,11.47
2022-12-26T11:30:33.085Z,11.28
2022-12-26T11:33:22.891Z,11.02
2022-12-26T11:36:06.504Z,10.70
2022-12-26T11:38:45.608Z,10.81
2022-12-26T11:41:24.161Z,10.86
2022-12-26T11:43:53.380Z,10.90
2022-12-26T11:46:30.186Z,10.96
2022-12-26T11:48:57.204Z,11.08
2022-12-26T11:51:46.921Z,10.78
2022-12-26T11:54:25.954Z,10.82
2022-12-26T11:57:22.676Z,11.01
2022-12-26T11:59:52.929Z,11.10
2022-12-26T12:02:24.340Z,11.20
2022-12-26T12:04:55.119Z,11.54
2022-12-26T12:07:27.813Z,11.54
2022-12-26T12:10:13.631Z,11.45
2022-12-26T12:13:15.411Z,11.23
2022-12-26T12:16:23.259Z,10.99
2022-12-26T12:19:02.032Z,10.88
2022-12-26T12:21:37.344Z,10.92
2022-12-26T12:24:29.847Z,10.89
2022-12-26T12:27:05.163Z,11.61
2022-12-26T12:30:05.935Z,11.30
2022-12-26T12:33:10.142Z,11.74
2022-12-26T12:35:53.095Z,11.62
2022-12-26T12:38:20.048Z,11.89
2022-12-26T12:41:14.605Z,11.75
2022-12-26T12:44:01.226Z,11.65
2022-12-26T12:46:51.011Z,11.37
2022-12-26T12:49:17.563Z,11.78
2022-12-26T12:52:29.299Z,11.82
2022-12-26T12:55:10.885Z,12.00
2022-12-26T12:57:40.197Z,12.33
2022-12-26T13:00:18.495Z,12.00
2022-12-26T13:03:09.003Z,12.11
2022-12-26T13:05:38.329Z,11.22
2022-12-26T13:08:15.505Z,12.15
2022-12-26T13:10:52.276Z,12.31
2022-12-26T13:13:32.867Z,12.49
2022-12-26T13:16:25.752Z,12.58
2022-12-26T13:19:05.973Z,12.74
2022-12-26T13:21:37.450Z,12.69
2022-12-26T13:24:13.618Z,13.00
2022-12-26T13:26:46.934Z,12.95
2022-12-26T13:29:34.662Z,13.00
2022-12-26T13:32:04.133Z,13.28
2022-12-26T13:34:32.245Z,13.49
2022-12-26T13:37:00.456Z,13.27
2022-12-26T13:39:36.386Z,13.15
2022-12-26T13:42:09.337Z,13.08
2022-12-26T13:44:39.428Z,12.65
2022-12-26T13:47:50.074Z,12.67
2022-12-26T13:51:07.828Z,12.29
2022-12-26T13:53:59.441Z,12.51
2022-12-26T13:56:45.888Z,12.52
2022-12-26T13:59:34.207Z,12.44
2022-12-26T14:02:36.827Z,12.29
2022-12-26T14:05:28.518Z,12.24
2022-12-26T14:08:33.759Z,12.42
2022-12-26T14:11:34.821Z,13.01
2022-12-26T14:14:06.288Z,13.02
2022-12-26T14:16:50.478Z,12.94
2022-12-26T14:19:50.574Z,12.73
2022-12-26T14:22:31.145Z,12.41
2022-12-26T14:25:27.982Z,12.26
2022-12-26T14:28:17.941Z,10.94
2022-12-26T14:31:19.429Z,11.18
2022-12-26T14:33:57.156Z,11.78
2022-12-26T14:36:45.733Z,11.70
2022-12-26T14:39:37.265Z,11.22
2022-12-26T14:42:07.151Z,11.18
2022-12-26T14:44:44.678Z,11.30
2022-12-26T14:47:39.003Z,11.06
2022-12-26T14:54:36.056Z,10.93
2022-12-26T14:57:41.327Z,11.20
2022-12-26T15:00:14.018Z,11.09
2022-12-26T15:02:53.800Z,10.77
2022-12-26T15:05:28.016Z,10.84
2022-12-26T15:08:31.783Z,10.93
2022-12-26T15:11:22.085Z,10.69
2022-12-26T15:14:26.569Z,10.62
2022-12-26T15:17:05.436Z,10.78
2022-12-26T15:20:12.973Z,10.80
2022-12-26T15:23:15.684Z,10.71
2022-12-26T15:26:03.459Z,10.78
2022-12-26T15:29:01.527Z,10.99
2022-12-26T15:31:49.863Z,10.92
2022-12-26T15:34:32.473Z,10.79
2022-12-26T15:37:07.055Z,11.26
2022-12-26T15:39:55.891Z,11.25
2022-12-26T15:43:26.791Z,11.38
2022-12-26T15:46:22.351Z,11.80
2022-12-26T15:48:58.217Z,11.69
2022-12-26T15:51:40.626Z,11.99
2022-12-26T15:55:05.277Z,12.10
2022-12-26T15:57:48.751Z,12.12
2022-12-26T16:00:25.798Z,11.72
2022-12-26T16:03:23.149Z,11.29
2022-12-26T16:06:14.031Z,10.84
2022-12-26T16:08:49.871Z,10.83
2022-12-26T16:11:21.613Z,10.76
2022-12-26T16:14:03.748Z,11.09
2022-12-26T16:16:34.263Z,11.30
2022-12-26T16:19:28.932Z,11.18
2022-12-26T16:22:01.623Z,10.84
2022-12-26T16:24:28.654Z,10.48
2022-12-26T16:27:01.460Z,10.40
2022-12-26T16:29:31.281Z,10.46
2022-12-26T16:32:06.976Z,10.55
2022-12-26T16:34:37.022Z,10.59
2022-12-26T16:37:04.817Z,10.78
2022-12-26T16:39:31.470Z,10.56
2022-12-26T16:42:02.998Z,10.55
2022-12-26T16:44:35.421Z,10.50
2022-12-26T16:47:06.910Z,10.16
2022-12-26T16:49:34.899Z,10.75
2022-12-26T16:52:01.645Z,10.55
2022-12-26T16:54:40.662Z,10.42
2022-12-26T16:57:19.930Z,10.18
2022-12-26T16:59:57.511Z,10.16
2022-12-26T17:02:30.246Z,10.50
2022-12-26T17:05:21.511Z,10.78
2022-12-26T17:07:51.844Z,11.02
2022-12-26T17:10:24.045Z,10.56
2022-12-26T17:12:52.623Z,10.94
2022-12-26T17:15:28.180Z,10.57
2022-12-26T17:17:55.177Z,10.97
2022-12-26T17:20:21.843Z,10.80
2022-12-26T17:22:52.326Z,10.63
2022-12-26T17:25:23.393Z,10.38
2022-12-26T17:28:08.508Z,10.69
2022-12-26T17:30:38.500Z,10.99
2022-12-26T17:33:13.572Z,10.94
2022-12-26T17:36:44.861Z,11.01
2022-12-26T17:38:51.951Z,10.53
2022-12-26T17:41:19.330Z,10.73
2022-12-26T17:43:47.904Z,10.55
2022-12-26T17:46:17.826Z,10.47
2022-12-26T17:48:45.145Z,10.59
2022-12-26T17:51:16.224Z,10.52
2022-12-26T17:53:49.196Z,10.38
2022-12-26T17:59:27.070Z,10.23
2022-12-26T18:01:54.047Z,10.53
2022-12-26T18:04:29.308Z,10.68
2022-12-26T18:07:39.246Z,10.56
2022-12-26T18:10:06.902Z,10.28
2022-12-26T18:12:33.635Z,10.22
2022-12-26T18:18:12.280Z,10.20
2022-12-26T18:18:37.773Z,10.22
2022-12-26T18:21:16.122Z,10.07
2022-12-26T18:23:43.279Z,10.00
2022-12-26T18:26:22.541Z,9.89
2022-12-26T18:28:53.091Z,9.81
2022-12-26T18:31:26.070Z,9.86
2022-12-26T18:33:52.867Z,10.39
2022-12-26T18:36:19.869Z,10.32
2022-12-26T18:38:46.540Z,9.99
2022-12-26T18:41:18.602Z,10.01
2022-12-26T18:47:28.535Z,10.60
2022-12-26T18:49:56.353Z,10.82
2022-12-26T18:55:28.304Z,10.78
2022-12-26T18:57:55.550Z,10.66
2022-12-26T19:00:26.242Z,10.11
2022-12-26T19:05:36.098Z,10.40
2022-12-26T19:11:08.141Z,10.82
2022-12-26T19:13:59.636Z,11.32
2022-12-26T19:16:26.929Z,10.76
2022-12-26T19:18:53.673Z,11.10
2022-12-26T19:21:20.517Z,11.28
2022-12-26T19:23:47.595Z,11.28
2022-12-26T19:26:18.823Z,11.25
2022-12-26T19:28:53.881Z,11.07
2022-12-26T19:31:22.087Z,11.63
2022-12-26T19:34:03.107Z,11.98
2022-12-26T19:36:30.020Z,11.71
2022-12-26T19:38:56.801Z,11.39
2022-12-26T19:41:26.687Z,11.29
2022-12-26T19:43:57.491Z,11.16
2022-12-26T19:46:25.123Z,11.75
2022-12-26T19:48:53.014Z,12.10
2022-12-26T19:51:21.845Z,11.54
2022-12-26T19:53:49.389Z,11.76
2022-12-26T19:56:25.714Z,12.01
2022-12-26T19:58:56.382Z,12.02
2022-12-26T20:01:26.844Z,12.01
2022-12-26T20:03:58.901Z,11.90
2022-12-26T20:06:30.579Z,11.83
2022-12-26T20:08:59.497Z,11.96
2022-12-26T20:11:34.575Z,12.19
2022-12-26T20:14:18.367Z,11.76
2022-12-26T20:17:05.715Z,11.05
2022-12-26T20:19:34.759Z,11.45
2022-12-26T20:22:01.557Z,11.33
2022-12-26T20:24:28.149Z,11.50
2022-12-26T20:26:55.096Z,11.30
2022-12-26T20:29:21.952Z,11.41
2022-12-26T20:31:49.000Z,11.71
2022-12-26T20:34:15.781Z,11.50
2022-12-26T20:36:42.411Z,11.58
2022-12-26T20:39:14.531Z,11.57
2022-12-26T20:41:41.243Z,11.97
2022-12-26T20:44:08.063Z,11.72
2022-12-26T20:46:35.731Z,11.84
2022-12-26T20:49:04.170Z,12.00
2022-12-26T20:51:39.004Z,12.23
2022-12-26T20:54:07.801Z,12.09
2022-12-26T20:56:35.607Z,12.26
2022-12-26T20:59:06.829Z,12.38
2022-12-26T21:01:45.971Z,12.39
2022-12-26T21:04:20.231Z,12.14
2022-12-26T21:06:47.885Z,11.36
2022-12-26T21:09:15.134Z,11.25
2022-12-26T21:11:50.424Z,11.53
2022-12-26T21:14:22.164Z,11.56
2022-12-26T21:16:52.472Z,11.79
2022-12-26T21:19:20.404Z,11.59
2022-12-26T21:21:50.759Z,11.88
2022-12-26T21:24:19.378Z,11.95
2022-12-26T21:26:46.752Z,11.77
2022-12-26T21:29:23.062Z,12.06
2022-12-26T21:31:50.571Z,11.61
2022-12-26T21:34:20.142Z,11.70
2022-12-26T21:36:47.695Z,12.15
2022-12-26T21:39:14.338Z,11.98
2022-12-26T21:41:41.274Z,10.76
2022-12-26T21:44:08.089Z,10.23
2022-12-26T21:46:34.755Z,10.57
2022-12-26T21:49:01.409Z,10.50
2022-12-26T21:51:30.605Z,10.37
2022-12-26T21:53:57.274Z,10.21
2022-12-26T21:56:23.884Z,10.09
2022-12-26T21:58:50.517Z,9.90
2022-12-26T22:01:58.146Z,10.00
2022-12-26T22:04:25.292Z,10.02
2022-12-26T22:06:52.503Z,10.04
2022-12-26T22:11:59.645Z,10.01
2022-12-26T22:14:41.459Z,9.77
2022-12-26T22:24:35.438Z,9.79
2022-12-26T22:27:02.104Z,9.96
2022-12-26T22:32:32.418Z,10.25
2022-12-26T22:35:23.781Z,10.33
2022-12-26T22:37:50.578Z,10.68
2022-12-26T22:40:17.200Z,10.32
2022-12-26T22:42:43.835Z,10.40
2022-12-26T22:45:11.265Z,10.56
2022-12-26T22:47:38.066Z,10.03
2022-12-26T22:50:08.113Z,10.03
2022-12-26T22:52:34.733Z,10.14
2022-12-26T22:55:01.385Z,10.45
2022-12-26T23:13:07.421Z,10.54
2022-12-26T23:16:04.130Z,10.25
2022-12-26T23:19:25.768Z,10.34
2022-12-26T23:22:01.436Z,10.47
2022-12-26T23:27:34.381Z,10.45
2022-12-26T23:30:03.857Z,10.70
2022-12-26T23:32:30.496Z,10.23
2022-12-26T23:34:57.139Z,10.19
2022-12-26T23:37:23.966Z,10.45
2022-12-26T23:39:50.690Z,10.89
2022-12-26T23:42:17.435Z,10.98
2022-12-26T23:44:44.098Z,10.52
2022-12-26T23:47:13.903Z,10.61
2022-12-26T23:49:51.708Z,11.17
2022-12-26T23:55:29.011Z,10.89
2022-12-26T23:58:23.418Z,10.67
